In Rescue
 
Open Full Screen Window  High Contrast Mode
Wind Gusting 16 knots
13
March 19, 2019 6:26 PM CDT
Present Weather: Mist
Weather Information
Wind Direction
  220 °
Wind Speed
  13 kt (15 mph)
Wind Gust
  16 kt (18 mph)
Altimeter
30.07 in
Visibility
5 SM
Temperature
00° C
32° F
Dewpoint
-02° C
28° F
Humidity
87%
1hr Rain Fall
00.00 in.
24hr Rain Fall
00.00 in.
Sky Condition
Clear
MVFR

METAR KFSE 192326Z AUTO 22013G16KT 5SM BR CLR 00/M02 A3007 RMK AO2

FAA Disclaimer: The data displayed is for advisory purposes only and is not to be used for flight planning or operations.